Time;durP1;ratioP1;P1;durP2;ratioP2;P2;SDS_P1;SDS_P2;PMS_P1;PMS_P2;Temp;Humidity;BMP_temperature;BMP_pressure;BME280_temperature;BME280_humidity;BME280_pressure;Samples;Min_cycle;Max_cycle;Signal;HPM_P1;HPM_P2
2023/01/31 00:01:36;;;;;;;5.75;3.83;;;;;;;;;;4929537;29;20063;-85
2023/01/31 00:04:06;;;;;;;5.82;4.60;;;;;;;;;;4948016;28;20047;-88
2023/01/31 00:06:38;;;;;;;11.75;10.52;;;;;;;;;;4931547;29;20039;-89
2023/01/31 00:09:07;;;;;;;4.70;4.28;;;;;;;;;;4917185;29;20048;-88
2023/01/31 00:11:35;;;;;;;10.05;7.97;;;;;;;;;;4932196;29;20054;-90
2023/01/31 00:14:05;;;;;;;23.75;21.70;;;;;;;;;;4931825;29;20350;-87
2023/01/31 00:16:38;;;;;;;14.20;13.13;;;;;;;;;;4915864;29;20075;-89
2023/01/31 00:19:07;;;;;;;44.35;41.28;;;;;;;;;;4917915;29;20048;-84
2023/01/31 00:21:42;;;;;;;7.35;3.63;;;;;;;;;;4932612;29;20059;-87
2023/01/31 00:24:12;;;;;;;58.45;54.35;;;;;;;;;;4937316;29;20549;-87
2023/01/31 00:26:39;;;;;;;6.25;3.75;;;;;;;;;;4920495;29;20047;-87
2023/01/31 00:29:08;;;;;;;60.67;56.25;;;;;;;;;;4930964;29;20133;-87
2023/01/31 00:31:36;;;;;;;29.40;26.83;;;;;;;;;;4933128;29;20172;-87
2023/01/31 00:34:06;;;;;;;13.52;10.73;;;;;;;;;;4918164;29;20062;-86
2023/01/31 00:36:37;;;;;;;10.23;9.23;;;;;;;;;;4935119;29;20055;-88
2023/01/31 00:39:09;;;;;;;;;;;;;;;;;;4917827;29;20055;-88
2023/01/31 00:41:37;;;;;;;6.30;3.55;;;;;;;;;;4944644;29;19911;-86
2023/01/31 00:44:08;;;;;;;;;;;;;;;;;;4940811;29;20051;-87
2023/01/31 00:46:44;;;;;;;12.48;11.50;;;;;;;;;;4947656;28;19950;-87
2023/01/31 00:49:13;;;;;;;10.00;3.72;;;;;;;;;;4932085;29;20044;-87
2023/01/31 00:51:40;;;;;;;9.93;8.35;;;;;;;;;;4934920;29;20098;-88
2023/01/31 00:54:21;;;;;;;7.13;3.10;;;;;;;;;;4936975;29;20042;-88
2023/01/31 00:56:49;;;;;;;104.18;96.68;;;;;;;;;;4937292;29;20082;-88
2023/01/31 00:59:16;;;;;;;20.88;19.45;;;;;;;;;;4938003;29;20517;-88
2023/01/31 01:01:46;;;;;;;9.02;3.50;;;;;;;;;;4937540;29;20052;-88
2023/01/31 01:04:14;;;;;;;7.13;3.45;;;;;;;;;;4934261;29;20189;-87
2023/01/31 01:06:41;;;;;;;8.75;7.95;;;;;;;;;;4938221;29;20401;-87
2023/01/31 01:09:11;;;;;;;46.50;43.38;;;;;;;;;;4946899;28;20056;-89
2023/01/31 01:11:38;;;;;;;40.88;37.65;;;;;;;;;;4926839;29;20103;-88
2023/01/31 01:14:08;;;;;;;17.77;16.52;;;;;;;;;;4918693;29;20103;-88
2023/01/31 01:16:38;;;;;;;4.43;3.65;;;;;;;;;;4937601;29;20051;-85
2023/01/31 01:19:07;;;;;;;40.92;36.92;;;;;;;;;;4917740;29;20202;-84
2023/01/31 01:21:38;;;;;;;41.13;37.38;;;;;;;;;;4933590;29;20047;-86
2023/01/31 01:24:07;;;;;;;11.77;9.70;;;;;;;;;;4944536;28;20052;-85
2023/01/31 01:26:35;;;;;;;19.15;17.30;;;;;;;;;;4937621;29;20048;-85
2023/01/31 01:29:03;;;;;;;7.13;4.25;;;;;;;;;;4931218;29;20416;-86
2023/01/31 01:31:31;;;;;;;14.40;13.23;;;;;;;;;;4931345;29;20051;-87
2023/01/31 01:34:00;;;;;;;84.57;77.80;;;;;;;;;;4915790;29;20098;-87
2023/01/31 01:36:28;;;;;;;69.95;63.72;;;;;;;;;;4918443;29;20103;-88
2023/01/31 01:38:55;;;;;;;6.38;5.15;;;;;;;;;;4937942;29;20724;-86
2023/01/31 01:41:23;;;;;;;6.75;5.72;;;;;;;;;;4931501;29;20047;-87
2023/01/31 01:43:56;;;;;;;4.82;3.40;;;;;;;;;;4918088;29;20134;-86
2023/01/31 01:46:26;;;;;;;13.25;9.65;;;;;;;;;;4935178;29;20491;-86
2023/01/31 01:48:57;;;;;;;5.47;4.30;;;;;;;;;;4941166;29;20047;-87
2023/01/31 01:51:26;;;;;;;10.77;8.82;;;;;;;;;;4932208;29;20508;-86
2023/01/31 01:53:54;;;;;;;10.57;9.55;;;;;;;;;;4933534;29;20523;-86
2023/01/31 01:56:25;;;;;;;71.28;65.65;;;;;;;;;;4930171;29;20131;-86
2023/01/31 01:58:58;;;;;;;40.87;37.50;;;;;;;;;;4930761;29;20071;-87
2023/01/31 02:01:28;;;;;;;31.38;28.60;;;;;;;;;;4932929;29;20051;-86
2023/01/31 02:03:56;;;;;;;23.00;20.73;;;;;;;;;;4916120;29;20055;-86
2023/01/31 02:06:24;;;;;;;61.53;56.03;;;;;;;;;;4931288;29;20048;-86
2023/01/31 02:08:52;;;;;;;43.72;39.95;;;;;;;;;;4915536;29;20107;-87
2023/01/31 02:11:26;;;;;;;78.55;70.43;;;;;;;;;;4918439;29;20513;-87
2023/01/31 02:14:07;;;;;;;64.85;60.03;;;;;;;;;;4916142;29;20048;-87
2023/01/31 02:16:34;;;;;;;184.35;166.88;;;;;;;;;;4928934;29;20055;-86
2023/01/31 02:19:08;;;;;;;5.07;4.00;;;;;;;;;;4912949;29;20056;-87
2023/01/31 02:21:51;;;;;;;15.70;14.30;;;;;;;;;;4949857;28;20047;-87
2023/01/31 02:24:31;;;;;;;16.77;15.27;;;;;;;;;;4921014;29;20067;-85
2023/01/31 02:27:05;;;;;;;9.18;8.07;;;;;;;;;;4915749;29;20138;-86
2023/01/31 02:29:32;;;;;;;10.82;7.07;;;;;;;;;;4918818;29;20051;-87
2023/01/31 02:32:20;;;;;;;14.73;13.43;;;;;;;;;;4935525;29;20420;-87
2023/01/31 02:34:53;;;;;;;32.65;29.33;;;;;;;;;;4936999;29;20040;-87
2023/01/31 02:37:42;;;;;;;5.53;4.93;;;;;;;;;;4934173;29;20083;-87
2023/01/31 02:40:16;;;;;;;35.13;32.63;;;;;;;;;;4960385;28;20468;-87
2023/01/31 02:42:57;;;;;;;86.43;78.93;;;;;;;;;;4944339;29;20032;-86
2023/01/31 02:45:25;;;;;;;17.35;16.00;;;;;;;;;;4931710;29;20051;-87
2023/01/31 02:48:11;;;;;;;5.60;3.40;;;;;;;;;;4936568;29;20136;-87
2023/01/31 02:50:57;;;;;;;8.32;4.60;;;;;;;;;;4949019;28;20047;-84
2023/01/31 02:53:30;;;;;;;60.55;55.70;;;;;;;;;;4939345;29;20051;-87
2023/01/31 02:56:19;;;;;;;6.00;3.47;;;;;;;;;;4921751;29;20051;-87
2023/01/31 02:58:58;;;;;;;32.13;29.88;;;;;;;;;;4931417;29;20440;-88
2023/01/31 03:01:34;;;;;;;18.48;16.13;;;;;;;;;;4980186;23;20334;-82
2023/01/31 03:04:04;;;;;;;5.90;3.40;;;;;;;;;;4964357;28;20086;-82
2023/01/31 03:06:34;;;;;;;7.45;3.28;;;;;;;;;;4960624;28;20315;-83
2023/01/31 03:09:04;;;;;;;12.15;9.77;;;;;;;;;;4948139;28;20047;-82
2023/01/31 03:11:47;;;;;;;21.80;19.88;;;;;;;;;;4946271;29;20043;-82
2023/01/31 03:14:26;;;;;;;42.88;38.80;;;;;;;;;;4930054;28;20147;-83
2023/01/31 03:17:32;;;;;;;37.25;31.00;;;;;;;;;;4924971;29;20052;-83
2023/01/31 03:20:02;;;;;;;8.98;6.63;;;;;;;;;;4947864;28;20051;-84
2023/01/31 03:22:56;;;;;;;6.25;3.47;;;;;;;;;;4947532;29;20040;-84
2023/01/31 03:25:24;;;;;;;10.65;3.75;;;;;;;;;;4960288;28;20063;-84
2023/01/31 03:27:57;;;;;;;39.47;35.60;;;;;;;;;;4938965;29;20232;-83
2023/01/31 03:30:30;;;;;;;58.20;53.65;;;;;;;;;;4945555;28;20043;-83
2023/01/31 03:33:00;;;;;;;116.25;106.45;;;;;;;;;;4950026;28;20130;-83
2023/01/31 03:35:31;;;;;;;6.03;3.00;;;;;;;;;;4935537;28;20105;-83
2023/01/31 03:38:03;;;;;;;18.38;16.75;;;;;;;;;;4929958;29;20055;-83
2023/01/31 03:40:33;;;;;;;41.88;38.42;;;;;;;;;;4949026;28;20055;-84
2023/01/31 03:43:04;;;;;;;104.85;96.68;;;;;;;;;;4930952;29;20110;-83
2023/01/31 03:45:35;;;;;;;9.00;7.78;;;;;;;;;;4935306;29;20540;-83
2023/01/31 03:48:06;;;;;;;23.88;21.15;;;;;;;;;;4954544;28;20047;-83
2023/01/31 03:50:39;;;;;;;4.70;3.03;;;;;;;;;;4923555;29;20469;-83
2023/01/31 03:53:13;;;;;;;8.02;3.78;;;;;;;;;;4931154;28;20071;-84
2023/01/31 03:55:51;;;;;;;7.60;3.47;;;;;;;;;;4925968;29;20126;-83
2023/01/31 03:58:21;;;;;;;7.45;3.28;;;;;;;;;;4931991;28;20066;-84
2023/01/31 04:00:49;;;;;;;5.88;2.92;;;;;;;;;;4954217;28;20535;-82
2023/01/31 04:03:23;;;;;;;12.20;11.00;;;;;;;;;;4940117;28;20055;-84
2023/01/31 04:05:51;;;;;;;5.97;2.97;;;;;;;;;;4949437;28;20687;-84
2023/01/31 04:08:20;;;;;;;22.17;20.33;;;;;;;;;;4933294;28;20074;-85
2023/01/31 04:10:57;;;;;;;11.27;8.10;;;;;;;;;;4931662;29;20135;-82
2023/01/31 04:13:24;;;;;;;37.30;34.38;;;;;;;;;;4951840;28;20040;-83
2023/01/31 04:15:51;;;;;;;5.43;3.13;;;;;;;;;;4931033;29;20063;-82
2023/01/31 04:18:19;;;;;;;35.33;32.55;;;;;;;;;;4950366;28;20051;-83
2023/01/31 04:20:46;;;;;;;67.35;60.05;;;;;;;;;;4942290;28;20051;-82
2023/01/31 04:23:13;;;;;;;5.13;2.85;;;;;;;;;;4950820;28;20051;-84
2023/01/31 04:25:40;;;;;;;6.05;2.97;;;;;;;;;;4956219;28;20059;-81
2023/01/31 04:28:08;;;;;;;14.27;13.20;;;;;;;;;;4946585;28;20428;-83
2023/01/31 04:30:35;;;;;;;5.78;3.53;;;;;;;;;;4947342;28;20067;-83
2023/01/31 04:33:03;;;;;;;12.25;11.00;;;;;;;;;;4947789;28;20047;-83
2023/01/31 04:35:30;;;;;;;3.85;2.95;;;;;;;;;;4930875;29;20050;-85
2023/01/31 04:37:58;;;;;;;7.00;3.10;;;;;;;;;;4950621;28;20134;-86
2023/01/31 04:40:25;;;;;;;46.55;32.88;;;;;;;;;;4950318;28;20051;-83
2023/01/31 04:42:53;;;;;;;20.40;18.63;;;;;;;;;;4947399;28;20051;-82
2023/01/31 04:45:20;;;;;;;4.88;2.80;;;;;;;;;;4961547;28;20094;-80
2023/01/31 04:47:48;;;;;;;14.93;9.73;;;;;;;;;;4959046;28;20053;-83
2023/01/31 04:50:15;;;;;;;28.45;26.05;;;;;;;;;;4952394;28;20402;-83
2023/01/31 04:52:43;;;;;;;24.20;22.35;;;;;;;;;;4948724;28;20518;-83
2023/01/31 04:55:11;;;;;;;5.05;2.67;;;;;;;;;;4947007;28;20039;-83
2023/01/31 04:57:38;;;;;;;89.28;79.70;;;;;;;;;;4928491;28;20445;-83
2023/01/31 05:00:06;;;;;;;6.07;5.30;;;;;;;;;;4956260;28;20043;-82
2023/01/31 05:02:33;;;;;;;17.27;16.15;;;;;;;;;;4947950;28;20300;-83
2023/01/31 05:05:01;;;;;;;100.35;91.82;;;;;;;;;;4926664;29;20055;-83
2023/01/31 05:07:28;;;;;;;85.55;79.00;;;;;;;;;;4928073;28;20051;-83
2023/01/31 05:09:56;;;;;;;8.77;6.45;;;;;;;;;;4942640;28;20561;-83
2023/01/31 05:12:23;;;;;;;6.68;3.15;;;;;;;;;;4942061;28;20044;-84
2023/01/31 05:14:50;;;;;;;11.60;10.60;;;;;;;;;;4948406;28;20070;-83
2023/01/31 05:17:24;;;;;;;7.30;3.17;;;;;;;;;;4946314;28;20079;-84
2023/01/31 05:19:52;;;;;;;10.70;7.75;;;;;;;;;;4962366;28;20074;-80
2023/01/31 05:22:21;;;;;;;5.13;2.97;;;;;;;;;;4945875;28;20058;-84
2023/01/31 05:24:49;;;;;;;11.07;3.67;;;;;;;;;;4947121;28;20043;-83
2023/01/31 05:27:17;;;;;;;33.47;30.65;;;;;;;;;;4946358;28;20055;-83
2023/01/31 05:29:44;;;;;;;4.82;2.70;;;;;;;;;;4924059;29;20039;-85
2023/01/31 05:32:12;;;;;;;9.02;3.65;;;;;;;;;;4935663;28;20049;-85
2023/01/31 05:34:39;;;;;;;7.45;3.10;;;;;;;;;;4962381;28;20043;-83
2023/01/31 05:37:06;;;;;;;36.50;34.15;;;;;;;;;;4950369;28;20382;-84
2023/01/31 05:39:35;;;;;;;8.07;7.03;;;;;;;;;;4945784;28;20127;-84
2023/01/31 05:42:04;;;;;;;7.47;3.42;;;;;;;;;;4944659;28;20141;-83
2023/01/31 05:44:32;;;;;;;51.70;48.05;;;;;;;;;;4942642;28;20095;-81
2023/01/31 05:46:59;;;;;;;11.57;10.50;;;;;;;;;;4950042;28;20070;-85
2023/01/31 05:49:32;;;;;;;4.47;3.38;;;;;;;;;;4930345;28;20078;-82
2023/01/31 05:51:59;;;;;;;8.68;7.80;;;;;;;;;;4957017;28;20424;-83
2023/01/31 05:54:27;;;;;;;22.33;20.38;;;;;;;;;;4947639;28;20404;-83
2023/01/31 05:56:54;;;;;;;44.22;40.67;;;;;;;;;;4940982;28;20050;-82
2023/01/31 05:59:22;;;;;;;6.90;5.03;;;;;;;;;;4948639;28;20043;-84
2023/01/31 06:01:49;;;;;;;30.40;28.25;;;;;;;;;;4948384;28;20059;-83
2023/01/31 06:04:16;;;;;;;43.65;40.75;;;;;;;;;;4947633;28;20051;-83
2023/01/31 06:06:44;;;;;;;5.03;4.07;;;;;;;;;;4959477;28;20047;-84
2023/01/31 06:09:11;;;;;;;13.98;12.57;;;;;;;;;;4952283;28;20074;-82
2023/01/31 06:11:39;;;;;;;15.82;14.48;;;;;;;;;;4956504;28;20051;-83
2023/01/31 06:14:06;;;;;;;6.95;5.60;;;;;;;;;;4951839;28;20082;-83
2023/01/31 06:16:36;;;;;;;13.43;9.20;;;;;;;;;;4938525;29;20508;-86
2023/01/31 06:19:06;;;;;;;6.10;3.55;;;;;;;;;;4949472;28;20055;-86
2023/01/31 06:21:35;;;;;;;8.95;5.07;;;;;;;;;;4936597;28;20498;-83
2023/01/31 06:24:02;;;;;;;5.22;3.08;;;;;;;;;;4941005;28;20588;-86
2023/01/31 06:26:29;;;;;;;116.95;105.72;;;;;;;;;;4951259;28;20051;-82
2023/01/31 06:28:58;;;;;;;230.63;210.15;;;;;;;;;;4955547;28;20047;-82
2023/01/31 06:31:25;;;;;;;6.35;3.58;;;;;;;;;;4952146;28;20046;-84
2023/01/31 06:33:52;;;;;;;6.88;5.82;;;;;;;;;;4953266;28;20102;-83
2023/01/31 06:36:20;;;;;;;13.75;9.57;;;;;;;;;;4946351;28;20111;-83
2023/01/31 06:38:51;;;;;;;5.82;4.68;;;;;;;;;;4946833;28;20059;-83
2023/01/31 06:41:19;;;;;;;28.63;26.08;;;;;;;;;;4948045;28;20059;-84
2023/01/31 06:43:46;;;;;;;7.72;4.03;;;;;;;;;;4946615;28;20060;-84
2023/01/31 06:46:14;;;;;;;58.50;54.63;;;;;;;;;;4944255;28;20448;-83
2023/01/31 06:48:42;;;;;;;38.38;35.70;;;;;;;;;;4944408;28;20048;-83
2023/01/31 06:51:10;;;;;;;9.15;3.95;;;;;;;;;;4941406;28;20075;-82
2023/01/31 06:53:37;;;;;;;10.48;9.07;;;;;;;;;;4951453;28;20079;-83
2023/01/31 06:56:04;;;;;;;6.90;3.22;;;;;;;;;;4962957;28;20796;-82
2023/01/31 06:58:32;;;;;;;6.25;3.70;;;;;;;;;;4947427;28;20055;-83
2023/01/31 07:01:06;;;;;;;13.55;9.48;;;;;;;;;;4941601;28;20067;-81
2023/01/31 07:03:41;;;;;;;8.60;5.65;;;;;;;;;;4952279;28;20054;-86
2023/01/31 07:06:09;;;;;;;8.98;3.75;;;;;;;;;;4946529;28;20552;-84
2023/01/31 07:08:37;;;;;;;33.17;30.05;;;;;;;;;;4952753;28;20066;-83
2023/01/31 07:11:04;;;;;;;7.15;2.83;;;;;;;;;;4952336;28;20039;-83
2023/01/31 07:13:32;;;;;;;14.88;13.60;;;;;;;;;;4946745;28;20131;-83
2023/01/31 07:15:59;;;;;;;43.65;39.90;;;;;;;;;;4952427;28;20374;-81
2023/01/31 07:18:27;;;;;;;38.45;35.85;;;;;;;;;;4947635;28;20106;-84
2023/01/31 07:20:54;;;;;;;7.07;3.58;;;;;;;;;;4948145;28;20051;-82
2023/01/31 07:23:22;;;;;;;82.15;76.88;;;;;;;;;;4949595;28;20047;-82
2023/01/31 07:25:52;;;;;;;10.65;4.65;;;;;;;;;;4947972;28;20063;-84
2023/01/31 07:28:20;;;;;;;8.80;3.40;;;;;;;;;;4944283;28;20147;-83
2023/01/31 07:30:47;;;;;;;5.47;3.15;;;;;;;;;;4934230;28;20061;-83
2023/01/31 07:33:14;;;;;;;7.38;5.32;;;;;;;;;;4935625;28;20051;-82
2023/01/31 07:35:43;;;;;;;8.23;6.53;;;;;;;;;;4958873;28;21255;-83
2023/01/31 07:38:13;;;;;;;147.13;132.33;;;;;;;;;;4949662;28;20055;-84
2023/01/31 07:40:43;;;;;;;42.08;39.03;;;;;;;;;;4976765;28;20306;-83
2023/01/31 07:43:10;;;;;;;13.82;7.25;;;;;;;;;;4961926;28;20074;-83
2023/01/31 07:45:41;;;;;;;9.13;5.88;;;;;;;;;;4964143;28;20047;-83
2023/01/31 07:48:09;;;;;;;7.95;4.32;;;;;;;;;;4960224;28;20125;-82
2023/01/31 07:50:36;;;;;;;11.05;9.88;;;;;;;;;;4960128;28;20058;-83
2023/01/31 07:53:04;;;;;;;7.25;3.42;;;;;;;;;;4944231;29;20043;-84
2023/01/31 07:55:31;;;;;;;23.00;12.40;;;;;;;;;;4963609;28;20032;-82
2023/01/31 07:57:59;;;;;;;56.10;51.30;;;;;;;;;;4960441;29;20054;-83
2023/01/31 08:03:31;;;;;;;13.43;11.77;;;;;;;;;;4956641;28;20079;-84
2023/01/31 08:06:18;;;;;;;11.75;6.20;;;;;;;;;;4955478;28;20047;-83
2023/01/31 08:08:46;;;;;;;11.43;10.00;;;;;;;;;;4955290;29;20062;-84
2023/01/31 08:11:13;;;;;;;30.05;27.45;;;;;;;;;;4934520;29;20047;-83
2023/01/31 08:13:41;;;;;;;5.35;3.17;;;;;;;;;;4936208;29;20417;-82
2023/01/31 08:16:09;;;;;;;33.15;30.23;;;;;;;;;;4945673;28;20062;-84
2023/01/31 08:18:37;;;;;;;5.43;3.08;;;;;;;;;;4958424;28;20039;-84
2023/01/31 08:21:05;;;;;;;9.45;5.90;;;;;;;;;;4952126;28;20505;-82
2023/01/31 08:23:32;;;;;;;8.57;3.58;;;;;;;;;;4953252;29;20128;-84
2023/01/31 08:26:04;;;;;;;17.60;10.30;;;;;;;;;;4940594;29;20058;-81
2023/01/31 08:28:35;;;;;;;67.90;62.13;;;;;;;;;;4958926;28;20070;-84
2023/01/31 08:31:02;;;;;;;69.80;64.70;;;;;;;;;;4965186;28;20043;-83
2023/01/31 08:33:36;;;;;;;121.05;109.78;;;;;;;;;;4945254;28;20067;-84
2023/01/31 08:36:12;;;;;;;14.85;13.55;;;;;;;;;;4953625;28;20047;-83
2023/01/31 08:38:40;;;;;;;68.95;63.60;;;;;;;;;;4951897;28;20059;-84
2023/01/31 08:41:08;;;;;;;8.13;2.75;;;;;;;;;;4956495;28;20055;-83
2023/01/31 08:43:36;;;;;;;16.48;15.18;;;;;;;;;;4947949;29;20111;-84
2023/01/31 08:46:22;;;;;;;4.25;2.75;;;;;;;;;;4937636;28;20134;-82
2023/01/31 08:48:51;;;;;;;10.40;7.55;;;;;;;;;;4943812;28;20046;-83
2023/01/31 08:51:19;;;;;;;7.93;3.17;;;;;;;;;;4943403;28;20121;-85
2023/01/31 08:53:46;;;;;;;6.57;2.72;;;;;;;;;;4951136;29;20095;-84
2023/01/31 08:56:14;;;;;;;5.47;3.08;;;;;;;;;;4948551;28;20103;-84
2023/01/31 08:58:42;;;;;;;22.83;20.75;;;;;;;;;;4952242;29;20065;-84
2023/01/31 09:01:11;;;;;;;3.63;2.55;;;;;;;;;;4960024;28;20054;-84
2023/01/31 09:03:42;;;;;;;6.60;5.00;;;;;;;;;;5147560;23;20050;-88
2023/01/31 09:06:16;;;;;;;6.63;3.03;;;;;;;;;;4952061;28;20417;-88
2023/01/31 09:08:43;;;;;;;21.70;20.23;;;;;;;;;;4942724;29;20177;-87
2023/01/31 09:11:17;;;;;;;13.55;9.48;;;;;;;;;;4953660;28;20043;-88
2023/01/31 09:13:50;;;;;;;53.22;48.67;;;;;;;;;;4954247;28;20147;-88
2023/01/31 09:16:18;;;;;;;30.23;28.13;;;;;;;;;;4950770;29;20129;-88
2023/01/31 09:18:46;;;;;;;5.00;3.08;;;;;;;;;;4954482;28;20306;-89
2023/01/31 09:21:16;;;;;;;129.20;117.38;;;;;;;;;;4950490;29;20055;-88
2023/01/31 09:23:44;;;;;;;7.28;3.45;;;;;;;;;;4952923;28;20058;-89
2023/01/31 09:26:15;;;;;;;6.18;2.78;;;;;;;;;;4950151;29;20066;-88
2023/01/31 09:28:44;;;;;;;9.63;3.43;;;;;;;;;;4952454;28;20043;-88
2023/01/31 09:31:13;;;;;;;8.48;7.53;;;;;;;;;;4935694;29;20050;-88
2023/01/31 09:33:40;;;;;;;7.72;3.60;;;;;;;;;;4953203;28;20047;-88
2023/01/31 09:36:09;;;;;;;7.88;3.30;;;;;;;;;;4954039;29;20051;-89
2023/01/31 09:38:39;;;;;;;4.53;2.38;;;;;;;;;;4936585;29;20130;-88
2023/01/31 09:41:16;;;;;;;6.32;3.03;;;;;;;;;;4952655;29;20094;-88
2023/01/31 09:43:49;;;;;;;12.40;11.45;;;;;;;;;;4964115;28;20051;-89
2023/01/31 09:46:23;;;;;;;6.38;2.33;;;;;;;;;;4948760;29;20055;-89
2023/01/31 09:48:52;;;;;;;20.08;16.90;;;;;;;;;;4945067;29;20055;-88
2023/01/31 09:51:20;;;;;;;16.88;15.55;;;;;;;;;;4951044;28;20101;-87
2023/01/31 09:53:47;;;;;;;4.20;2.63;;;;;;;;;;4954427;28;20043;-87
2023/01/31 09:56:20;;;;;;;41.90;37.65;;;;;;;;;;4936378;29;20043;-88
2023/01/31 09:58:48;;;;;;;7.50;3.08;;;;;;;;;;4950805;29;20122;-88
2023/01/31 10:01:18;;;;;;;26.77;24.45;;;;;;;;;;4954504;29;20134;-89
2023/01/31 10:03:58;;;;;;;8.93;3.83;;;;;;;;;;4949876;28;20050;-88
2023/01/31 10:07:03;;;;;;;12.50;5.40;;;;;;;;;;4953768;29;20489;-89
2023/01/31 10:09:47;;;;;;;5.90;4.63;;;;;;;;;;4877103;29;20522;-88
2023/01/31 10:12:30;;;;;;;12.23;10.80;;;;;;;;;;4957310;29;20046;-88
2023/01/31 10:15:06;;;;;;;4.25;2.83;;;;;;;;;;4958667;28;20043;-89
2023/01/31 10:17:38;;;;;;;4.22;3.28;;;;;;;;;;4958749;28;20220;-89
2023/01/31 10:20:13;;;;;;;4.82;3.08;;;;;;;;;;4955939;28;20062;-88
2023/01/31 10:22:45;;;;;;;3.97;2.65;;;;;;;;;;4975254;28;20027;-89
2023/01/31 10:25:34;;;;;;;5.80;5.25;;;;;;;;;;4973998;28;20039;-88
2023/01/31 10:28:20;;;;;;;5.55;3.40;;;;;;;;;;4974559;28;20051;-89
2023/01/31 10:30:55;;;;;;;7.97;3.10;;;;;;;;;;4957395;29;20166;-88
2023/01/31 10:33:45;;;;;;;14.98;3.80;;;;;;;;;;4956770;28;20058;-88
2023/01/31 10:36:18;;;;;;;43.53;40.20;;;;;;;;;;4975011;28;20059;-88
2023/01/31 10:39:06;;;;;;;13.43;10.60;;;;;;;;;;4952938;28;20039;-88
2023/01/31 10:41:51;;;;;;;24.33;22.48;;;;;;;;;;4969956;28;20065;-87
2023/01/31 10:44:58;;;;;;;4.55;2.50;;;;;;;;;;4978525;28;20035;-88
2023/01/31 10:47:37;;;;;;;6.45;5.85;;;;;;;;;;4966837;28;20051;-89
2023/01/31 10:50:16;;;;;;;7.57;2.47;;;;;;;;;;4964320;29;20058;-89
2023/01/31 10:52:55;;;;;;;51.97;48.00;;;;;;;;;;4959354;28;20047;-88
2023/01/31 10:55:23;;;;;;;15.85;14.65;;;;;;;;;;4961877;28;20043;-87
2023/01/31 10:57:51;;;;;;;10.38;8.23;;;;;;;;;;4964395;28;20043;-87
2023/01/31 11:00:32;;;;;;;19.77;14.63;;;;;;;;;;4957039;29;20057;-87
2023/01/31 11:02:59;;;;;;;12.57;11.40;;;;;;;;;;4941388;29;20528;-87
2023/01/31 11:05:29;;;;;;;8.52;7.68;;;;;;;;;;4957157;28;20340;-88
2023/01/31 11:08:01;;;;;;;134.45;125.00;;;;;;;;;;4956470;29;20577;-89
2023/01/31 11:10:30;;;;;;;7.57;3.65;;;;;;;;;;4938982;29;20111;-88
2023/01/31 11:13:03;;;;;;;4.30;2.00;;;;;;;;;;4954355;28;20054;-88
2023/01/31 11:15:47;;;;;;;7.75;2.63;;;;;;;;;;4955588;28;20517;-88
2023/01/31 11:18:32;;;;;;;5.88;3.97;;;;;;;;;;4957478;28;20126;-88
2023/01/31 11:21:01;;;;;;;56.65;51.88;;;;;;;;;;4943675;29;20058;-88
2023/01/31 11:23:36;;;;;;;2.33;1.60;;;;;;;;;;4942159;28;20378;-88
2023/01/31 11:26:53;;;;;;;5.35;1.80;;;;;;;;;;4963178;28;20135;-88
2023/01/31 11:30:37;;;;;;;90.57;84.57;;;;;;;;;;4918848;29;20070;-88
2023/01/31 11:33:30;;;;;;;8.25;4.43;;;;;;;;;;4955810;28;20406;-87
2023/01/31 11:36:27;;;;;;;7.25;2.90;;;;;;;;;;4949022;28;20051;-88
2023/01/31 11:43:18;;;;;;;90.88;84.40;;;;;;;;;;4952543;29;20071;-88
2023/01/31 11:46:04;;;;;;;41.50;37.70;;;;;;;;;;4960059;28;20078;-88
2023/01/31 11:48:44;;;;;;;199.55;180.63;;;;;;;;;;4938434;29;20059;-88
2023/01/31 11:51:25;;;;;;;33.40;30.77;;;;;;;;;;4954822;28;20059;-87
2023/01/31 11:59:04;;;;;;;57.85;54.00;;;;;;;;;;4902833;29;20058;-87
2023/01/31 12:02:23;;;;;;;6.03;1.77;;;;;;;;;;4956161;28;20397;-87
2023/01/31 12:05:31;;;;;;;7.63;2.15;;;;;;;;;;4952093;28;20046;-88
2023/01/31 12:08:26;;;;;;;75.25;69.95;;;;;;;;;;4927855;28;20051;-87
2023/01/31 12:15:25;;;;;;;6.13;1.90;;;;;;;;;;4936272;29;20756;-88
2023/01/31 12:18:32;;;;;;;37.55;34.90;;;;;;;;;;4887667;29;20563;-87
2023/01/31 12:21:07;;;;;;;8.63;5.70;;;;;;;;;;4899085;29;20066;-87
2023/01/31 12:23:51;;;;;;;18.40;15.40;;;;;;;;;;4892571;29;20049;-88
2023/01/31 12:26:29;;;;;;;4.25;1.25;;;;;;;;;;4894925;29;20139;-87
2023/01/31 12:29:18;;;;;;;7.05;2.00;;;;;;;;;;4880987;29;20072;-87
2023/01/31 12:32:08;;;;;;;110.80;102.60;;;;;;;;;;4895132;29;20123;-88
2023/01/31 12:34:36;;;;;;;10.00;9.18;;;;;;;;;;4886087;29;20053;-87
2023/01/31 12:37:22;;;;;;;10.27;2.30;;;;;;;;;;4896906;29;20127;-87
2023/01/31 12:40:08;;;;;;;74.75;69.30;;;;;;;;;;4896582;29;20135;-88
2023/01/31 12:42:53;;;;;;;7.57;1.92;;;;;;;;;;4899617;29;20060;-86
2023/01/31 12:45:23;;;;;;;4.32;1.70;;;;;;;;;;4910951;29;20059;-87
2023/01/31 12:48:02;;;;;;;36.85;34.47;;;;;;;;;;4896234;29;20048;-88
2023/01/31 12:50:43;;;;;;;11.13;10.00;;;;;;;;;;4895960;29;20056;-88
2023/01/31 12:53:25;;;;;;;5.60;4.32;;;;;;;;;;4898469;29;20051;-87
2023/01/31 12:55:52;;;;;;;43.22;40.47;;;;;;;;;;4935628;28;20107;-87
2023/01/31 12:58:35;;;;;;;4.30;1.63;;;;;;;;;;4954944;29;20049;-88
2023/01/31 13:01:07;;;;;;;4.45;1.48;;;;;;;;;;4955846;28;20779;-87
2023/01/31 13:04:12;;;;;;;3.10;2.65;;;;;;;;;;4956094;28;20132;-89
2023/01/31 13:06:43;;;;;;;4.93;1.58;;;;;;;;;;4951161;29;20124;-88
2023/01/31 13:09:17;;;;;;;6.47;1.65;;;;;;;;;;4961238;28;20051;-87
2023/01/31 13:12:00;;;;;;;4.25;1.50;;;;;;;;;;4955769;29;20066;-88
2023/01/31 13:14:35;;;;;;;12.75;11.65;;;;;;;;;;4954631;28;20113;-88
2023/01/31 13:17:04;;;;;;;27.83;25.40;;;;;;;;;;4969296;28;20043;-88
2023/01/31 13:19:53;;;;;;;31.33;29.15;;;;;;;;;;4956138;28;20134;-88
2023/01/31 13:22:52;;;;;;;5.55;1.50;;;;;;;;;;4926415;29;20049;-88
2023/01/31 13:25:37;;;;;;;5.05;1.95;;;;;;;;;;4949605;23;20063;-81
2023/01/31 13:28:31;;;;;;;14.82;13.48;;;;;;;;;;4936907;29;20409;-81
2023/01/31 13:31:01;;;;;;;110.78;101.63;;;;;;;;;;4935963;29;20454;-81
2023/01/31 13:33:36;;;;;;;26.42;24.40;;;;;;;;;;4936836;29;20054;-80
2023/01/31 13:36:13;;;;;;;21.73;19.73;;;;;;;;;;4936398;29;20044;-81
2023/01/31 13:38:42;;;;;;;9.55;3.03;;;;;;;;;;4929976;29;20553;-82
2023/01/31 13:41:17;;;;;;;6.63;1.90;;;;;;;;;;4937075;29;20040;-81
2023/01/31 13:43:45;;;;;;;6.78;2.08;;;;;;;;;;4926465;29;20475;-81
2023/01/31 13:46:13;;;;;;;106.38;97.43;;;;;;;;;;4916822;29;20076;-81
2023/01/31 13:48:51;;;;;;;49.80;44.95;;;;;;;;;;4912949;29;20058;-81
2023/01/31 13:51:19;;;;;;;4.18;1.80;;;;;;;;;;4918066;29;20047;-81
2023/01/31 13:53:51;;;;;;;31.73;28.95;;;;;;;;;;4931759;29;20547;-80
2023/01/31 13:56:22;;;;;;;5.60;2.00;;;;;;;;;;4932644;29;20050;-81
2023/01/31 13:58:51;;;;;;;6.40;5.38;;;;;;;;;;4930814;29;20044;-81
2023/01/31 14:01:23;;;;;;;5.25;2.25;;;;;;;;;;4918329;29;20052;-82
2023/01/31 14:04:10;;;;;;;29.42;27.15;;;;;;;;;;4924243;29;20052;-82
2023/01/31 14:07:10;;;;;;;5.32;1.88;;;;;;;;;;4933666;29;20063;-82
2023/01/31 14:09:46;;;;;;;9.52;3.17;;;;;;;;;;4883055;29;20047;-81
2023/01/31 14:12:16;;;;;;;5.85;1.90;;;;;;;;;;4918152;29;20036;-81
2023/01/31 14:14:52;;;;;;;16.33;15.05;;;;;;;;;;4930946;29;20052;-81
2023/01/31 14:17:29;;;;;;;9.82;6.43;;;;;;;;;;4931766;29;20127;-81
2023/01/31 14:19:59;;;;;;;189.27;151.10;;;;;;;;;;4931489;29;20067;-81
2023/01/31 14:22:33;;;;;;;9.25;3.08;;;;;;;;;;4920464;29;20454;-83
2023/01/31 14:25:02;;;;;;;74.25;68.90;;;;;;;;;;4935207;29;20506;-82
2023/01/31 14:27:33;;;;;;;23.75;12.13;;;;;;;;;;4933142;29;20069;-81
2023/01/31 14:30:08;;;;;;;15.07;13.77;;;;;;;;;;4928145;29;20052;-81
2023/01/31 14:32:40;;;;;;;73.95;68.90;;;;;;;;;;4933844;29;20075;-81
2023/01/31 14:35:14;;;;;;;22.80;20.75;;;;;;;;;;4913178;29;20048;-81
2023/01/31 14:38:00;;;;;;;9.60;8.57;;;;;;;;;;4917866;29;20424;-81
2023/01/31 14:40:31;;;;;;;9.43;8.68;;;;;;;;;;4930617;29;20482;-81
2023/01/31 14:43:20;;;;;;;43.60;40.70;;;;;;;;;;4933387;29;20055;-83
2023/01/31 14:45:55;;;;;;;3.38;1.60;;;;;;;;;;4916686;29;20056;-81
2023/01/31 14:48:30;;;;;;;30.35;26.42;;;;;;;;;;4928317;29;20108;-81
2023/01/31 14:51:02;;;;;;;76.65;70.47;;;;;;;;;;4936989;29;20116;-82
2023/01/31 14:53:29;;;;;;;;;;;;;;;;;;4928736;29;20048;-82
2023/01/31 14:56:19;;;;;;;11.98;11.00;;;;;;;;;;4933118;29;20205;-81
2023/01/31 14:58:46;;;;;;;2.42;1.50;;;;;;;;;;4940034;29;20072;-82
2023/01/31 15:01:18;;;;;;;6.80;6.35;;;;;;;;;;4928791;29;20053;-81
2023/01/31 15:03:48;;;;;;;2.63;1.50;;;;;;;;;;4960923;23;20110;-83
2023/01/31 15:06:39;;;;;;;4.85;2.22;;;;;;;;;;4957864;28;20593;-83
2023/01/31 15:09:17;;;;;;;48.10;44.83;;;;;;;;;;4953413;28;20093;-83
2023/01/31 15:11:46;;;;;;;96.35;89.07;;;;;;;;;;4957344;28;20055;-84
2023/01/31 15:14:22;;;;;;;8.48;2.00;;;;;;;;;;4946035;28;20653;-83
2023/01/31 15:17:03;;;;;;;6.25;1.98;;;;;;;;;;4952312;28;20070;-83
2023/01/31 15:19:57;;;;;;;7.22;1.98;;;;;;;;;;4955931;28;20051;-82
2023/01/31 15:22:26;;;;;;;1.48;1.35;;;;;;;;;;4921988;29;20066;-82
2023/01/31 15:25:01;;;;;;;3.97;1.92;;;;;;;;;;4957647;28;20051;-83